International Virtual Aviation Organisation

Eastern Europe and Northern Asia MCD

 
UAUU 110300Z 12002MPS 0150 R15/M0200N FZFG VV001 M01/M01 Q1039 R15/190058 NOSIG RMK QBB050 QFE762/1017
QNH:(hPa/inHg/mmHg)1039 / 30.68 / 779
QFE:(hPa/inHg/mmHg)1017 / 30.03 / 763
Temperature-1
Dew Point-1
Visibility0150
WeatherFreezing Fog
Cloud CoverVV (100);
Transition Height10000 m./33500 ft.
Transition LevelFL350
SQUAWK